createdAt,value
2018-06-30T00:00:03.607Z,17.60
2018-06-30T00:02:32.001Z,17.61
2018-06-30T00:05:01.369Z,17.71
2018-06-30T00:07:31.261Z,17.74
2018-06-30T00:10:00.023Z,17.72
2018-06-30T00:12:30.739Z,17.60
2018-06-30T00:14:59.329Z,17.57
2018-06-30T00:17:28.250Z,17.58
2018-06-30T00:19:56.921Z,17.58
2018-06-30T00:22:25.208Z,17.62
2018-06-30T00:24:54.203Z,17.56
2018-06-30T00:27:29.442Z,17.63
2018-06-30T00:29:59.529Z,17.58
2018-06-30T00:32:28.309Z,17.61
2018-06-30T00:34:56.981Z,17.51
2018-06-30T00:37:25.829Z,17.52
2018-06-30T00:39:54.997Z,17.48
2018-06-30T00:42:23.694Z,17.58
2018-06-30T00:44:52.123Z,17.47
2018-06-30T00:47:20.942Z,17.46
2018-06-30T00:49:49.781Z,17.46
2018-06-30T00:52:18.480Z,17.48
2018-06-30T00:54:46.949Z,17.45
2018-06-30T00:57:15.321Z,17.39
2018-06-30T00:59:43.784Z,17.36
2018-06-30T01:02:12.101Z,17.32
2018-06-30T01:04:40.389Z,17.23
2018-06-30T01:07:08.656Z,17.29
2018-06-30T01:09:36.937Z,17.17
2018-06-30T01:12:05.281Z,17.11
2018-06-30T01:14:33.579Z,16.97
2018-06-30T01:17:01.828Z,16.83
2018-06-30T01:19:31.130Z,16.80
2018-06-30T01:21:59.397Z,16.90
2018-06-30T01:24:27.692Z,16.82
2018-06-30T01:26:55.981Z,16.74
2018-06-30T01:29:24.265Z,16.81
2018-06-30T01:31:52.563Z,16.72
2018-06-30T01:34:20.833Z,16.67
2018-06-30T01:36:49.761Z,16.71
2018-06-30T01:39:18.054Z,16.70
2018-06-30T01:41:46.310Z,16.70
2018-06-30T01:44:14.613Z,16.66
2018-06-30T01:46:42.893Z,16.82
2018-06-30T01:49:11.193Z,16.73
2018-06-30T01:51:39.449Z,16.70
2018-06-30T01:54:07.843Z,16.69
2018-06-30T01:56:36.095Z,16.61
2018-06-30T01:59:04.384Z,16.65
2018-06-30T02:01:32.664Z,16.59
2018-06-30T02:04:00.914Z,16.57
2018-06-30T02:06:29.215Z,16.48
2018-06-30T02:08:57.492Z,16.44
2018-06-30T02:11:25.789Z,16.36
2018-06-30T02:13:54.064Z,16.41
2018-06-30T02:16:22.365Z,16.33
2018-06-30T02:18:50.669Z,16.35
2018-06-30T02:21:18.988Z,16.21
2018-06-30T02:23:47.256Z,16.08
2018-06-30T02:26:15.589Z,16.05
2018-06-30T02:28:44.153Z,16.00
2018-06-30T02:31:12.489Z,16.09
2018-06-30T02:33:40.851Z,16.08
2018-06-30T02:36:09.167Z,15.86
2018-06-30T02:38:37.428Z,15.93
2018-06-30T02:41:05.775Z,15.86
2018-06-30T02:43:34.060Z,15.83
2018-06-30T02:46:02.496Z,15.80
2018-06-30T02:48:30.652Z,15.86
2018-06-30T02:50:58.929Z,15.83
2018-06-30T02:53:27.381Z,15.83
2018-06-30T02:55:55.674Z,15.84
2018-06-30T02:58:23.943Z,15.85
2018-06-30T03:00:52.226Z,15.82
2018-06-30T03:03:20.521Z,15.80
2018-06-30T03:05:48.797Z,15.78
2018-06-30T03:08:17.077Z,15.83
2018-06-30T03:10:45.332Z,15.81
2018-06-30T03:13:13.673Z,15.89
2018-06-30T03:15:41.928Z,15.91
2018-06-30T03:18:10.221Z,15.84
2018-06-30T03:20:38.474Z,15.86
2018-06-30T03:23:07.121Z,15.81
2018-06-30T03:25:35.393Z,15.82
2018-06-30T03:28:03.693Z,15.86
2018-06-30T03:30:31.969Z,15.97
2018-06-30T03:33:00.245Z,15.97
2018-06-30T03:35:28.521Z,15.94
2018-06-30T03:37:56.814Z,16.04
2018-06-30T03:40:25.080Z,16.14
2018-06-30T03:42:53.370Z,16.21
2018-06-30T03:45:21.633Z,16.28
2018-06-30T03:47:49.913Z,16.28
2018-06-30T03:50:18.234Z,16.22
2018-06-30T03:52:46.481Z,16.26
2018-06-30T03:55:14.793Z,16.22
2018-06-30T03:57:43.125Z,16.39
2018-06-30T04:00:11.541Z,16.43
2018-06-30T04:02:39.797Z,16.38
2018-06-30T04:05:08.093Z,16.35
2018-06-30T04:07:36.357Z,16.49
2018-06-30T04:10:04.697Z,16.52
2018-06-30T04:12:32.961Z,16.49
2018-06-30T04:15:01.253Z,16.49
2018-06-30T04:17:29.517Z,16.68
2018-06-30T04:19:57.813Z,16.74
2018-06-30T04:22:26.069Z,16.71
2018-06-30T04:24:54.369Z,16.77
2018-06-30T04:27:22.637Z,16.83
2018-06-30T04:29:50.933Z,16.99
2018-06-30T04:32:19.210Z,16.98
2018-06-30T04:34:47.521Z,17.10
2018-06-30T04:37:15.819Z,16.93
2018-06-30T04:39:45.120Z,17.04
2018-06-30T04:42:13.445Z,17.05
2018-06-30T04:44:41.715Z,16.93
2018-06-30T04:47:09.996Z,16.94
2018-06-30T04:49:38.242Z,17.16
2018-06-30T04:52:06.856Z,17.56
2018-06-30T04:54:35.105Z,17.71
2018-06-30T04:57:03.401Z,17.63
2018-06-30T04:59:31.683Z,17.41
2018-06-30T05:01:59.997Z,17.20
2018-06-30T05:04:28.273Z,17.33
2018-06-30T05:06:56.573Z,17.27
2018-06-30T05:09:24.829Z,17.35
2018-06-30T05:11:53.413Z,17.66
2018-06-30T05:14:21.769Z,17.81
2018-06-30T05:16:50.093Z,17.90
2018-06-30T05:19:18.481Z,18.11
2018-06-30T05:21:46.889Z,18.14
2018-06-30T05:24:15.164Z,18.35
2018-06-30T05:26:43.477Z,18.41
2018-06-30T05:29:11.762Z,18.42
2018-06-30T05:31:40.117Z,18.87
2018-06-30T05:34:08.412Z,19.32
2018-06-30T05:36:36.725Z,19.62
2018-06-30T05:39:07.281Z,19.90
2018-06-30T05:41:35.637Z,20.00
2018-06-30T05:44:04.289Z,20.21
2018-06-30T05:46:33.623Z,20.20
2018-06-30T05:49:02.057Z,20.20
2018-06-30T05:51:30.345Z,19.97
2018-06-30T05:53:58.665Z,20.09
2018-06-30T05:56:26.967Z,19.99
2018-06-30T05:58:55.330Z,19.89
2018-06-30T06:01:23.636Z,19.89
2018-06-30T06:03:51.968Z,20.21
2018-06-30T06:06:20.250Z,20.24
2018-06-30T06:08:48.642Z,20.35
2018-06-30T06:11:16.932Z,20.53
2018-06-30T06:13:45.238Z,20.25
2018-06-30T06:16:13.545Z,20.39
2018-06-30T06:18:41.841Z,20.37
2018-06-30T06:21:10.169Z,20.43
2018-06-30T06:23:38.553Z,20.53
2018-06-30T06:26:06.897Z,20.85
2018-06-30T06:28:35.185Z,20.99
2018-06-30T06:31:03.533Z,21.31
2018-06-30T06:33:31.797Z,21.17
2018-06-30T06:36:00.225Z,21.15
2018-06-30T06:38:29.585Z,21.32
2018-06-30T06:40:58.009Z,21.38
2018-06-30T06:43:26.273Z,21.46
2018-06-30T06:45:54.589Z,21.12
2018-06-30T06:48:22.880Z,20.78
2018-06-30T06:50:51.165Z,20.78
2018-06-30T06:53:19.453Z,20.93
2018-06-30T06:55:47.752Z,21.26
2018-06-30T06:58:16.021Z,21.31
2018-06-30T07:00:44.368Z,21.80
2018-06-30T07:03:12.709Z,21.94
2018-06-30T07:05:40.937Z,21.94
2018-06-30T07:08:09.273Z,21.38
2018-06-30T07:10:37.577Z,21.84
2018-06-30T07:13:05.857Z,22.20
2018-06-30T07:15:34.211Z,22.24
2018-06-30T07:18:02.469Z,22.40
2018-06-30T07:20:30.785Z,22.36
2018-06-30T07:22:59.086Z,22.90
2018-06-30T07:25:27.384Z,23.31
2018-06-30T07:27:55.698Z,23.49
2018-06-30T07:30:23.957Z,23.67
2018-06-30T07:32:52.258Z,23.29
2018-06-30T07:35:20.543Z,23.62
2018-06-30T07:37:48.854Z,22.85
2018-06-30T07:40:17.116Z,22.98
2018-06-30T07:42:45.409Z,22.82
2018-06-30T07:45:13.669Z,22.96
2018-06-30T07:47:41.969Z,22.81
2018-06-30T07:50:10.300Z,22.26
2018-06-30T07:52:38.513Z,22.12
2018-06-30T07:55:06.769Z,21.90
2018-06-30T07:57:35.053Z,22.14
2018-06-30T08:00:04.689Z,22.42
2018-06-30T08:02:33.033Z,23.08
2018-06-30T08:05:01.409Z,23.17
2018-06-30T08:07:30.717Z,22.96
2018-06-30T08:09:58.990Z,23.03
2018-06-30T08:12:27.269Z,23.61
2018-06-30T08:14:56.672Z,23.81
2018-06-30T08:17:24.939Z,23.49
2018-06-30T08:19:53.334Z,22.23
2018-06-30T08:22:21.590Z,22.60
2018-06-30T08:24:49.877Z,22.56
2018-06-30T08:27:18.151Z,23.21
2018-06-30T08:29:46.449Z,24.17
2018-06-30T08:32:14.705Z,24.39
2018-06-30T08:34:43.014Z,24.72
2018-06-30T08:37:11.378Z,24.74
2018-06-30T08:39:39.658Z,24.66
2018-06-30T08:42:08.006Z,24.59
2018-06-30T08:44:36.329Z,24.38
2018-06-30T08:47:04.717Z,24.39
2018-06-30T08:49:32.998Z,24.43
2018-06-30T08:52:01.265Z,23.83
2018-06-30T08:54:29.584Z,24.53
2018-06-30T08:56:57.847Z,24.78
2018-06-30T08:59:26.193Z,24.52
2018-06-30T09:01:54.509Z,24.13
2018-06-30T09:04:22.785Z,24.18
2018-06-30T09:06:51.089Z,23.98
2018-06-30T09:09:19.365Z,23.01
2018-06-30T09:11:47.704Z,23.00
2018-06-30T09:14:15.965Z,22.90
2018-06-30T09:16:44.297Z,22.69
2018-06-30T09:19:12.560Z,22.81
2018-06-30T09:21:40.877Z,22.72
2018-06-30T09:24:09.441Z,22.76
2018-06-30T09:26:37.797Z,22.82
2018-06-30T09:29:07.095Z,22.88
2018-06-30T09:31:35.430Z,23.23
2018-06-30T09:34:03.713Z,23.73
2018-06-30T09:36:32.007Z,24.01
2018-06-30T09:39:00.258Z,24.46
2018-06-30T09:41:28.550Z,24.18
2018-06-30T09:43:56.915Z,23.69
2018-06-30T09:46:25.190Z,23.72
2018-06-30T09:48:53.462Z,23.21
2018-06-30T09:51:21.800Z,22.89
2018-06-30T09:53:50.126Z,22.46
2018-06-30T09:56:18.397Z,22.49
2018-06-30T09:58:46.716Z,22.33
2018-06-30T10:01:15.048Z,22.34
2018-06-30T10:03:43.328Z,22.44
2018-06-30T10:06:11.584Z,22.93
2018-06-30T10:08:39.877Z,23.10
2018-06-30T10:11:08.145Z,22.93
2018-06-30T10:13:36.436Z,23.07
2018-06-30T10:16:04.805Z,23.75
2018-06-30T10:18:33.119Z,23.69
2018-06-30T10:21:01.446Z,24.24
2018-06-30T10:23:30.716Z,23.99
2018-06-30T10:25:58.997Z,24.22
2018-06-30T10:28:27.294Z,24.15
2018-06-30T10:30:55.554Z,24.33
2018-06-30T10:33:24.913Z,24.18
2018-06-30T10:35:53.173Z,24.08
2018-06-30T10:38:21.461Z,23.72
2018-06-30T10:40:49.741Z,23.54
2018-06-30T10:43:18.021Z,23.47
2018-06-30T10:45:46.309Z,23.43
2018-06-30T10:48:14.652Z,23.64
2018-06-30T10:50:42.945Z,23.54
2018-06-30T10:53:11.205Z,23.56
2018-06-30T10:55:39.521Z,23.76
2018-06-30T10:58:07.804Z,23.81
2018-06-30T11:00:36.203Z,23.61
2018-06-30T11:03:04.612Z,23.12
2018-06-30T11:05:32.905Z,23.03
2018-06-30T11:08:01.159Z,23.60
2018-06-30T11:10:29.432Z,23.90
2018-06-30T11:12:57.741Z,23.70
2018-06-30T11:15:26.057Z,23.03
2018-06-30T11:17:54.340Z,23.00
2018-06-30T11:20:22.670Z,22.19
2018-06-30T11:22:50.931Z,22.00
2018-06-30T11:25:19.225Z,22.25
2018-06-30T11:27:47.514Z,22.99
2018-06-30T11:30:15.793Z,23.21
2018-06-30T11:32:44.070Z,22.82
2018-06-30T11:35:12.407Z,23.08
2018-06-30T11:37:40.657Z,23.17
2018-06-30T11:40:08.957Z,23.19
2018-06-30T11:42:37.217Z,23.07
2018-06-30T11:45:05.789Z,23.22
2018-06-30T11:47:34.112Z,23.49
2018-06-30T11:50:02.381Z,23.19
2018-06-30T11:52:30.672Z,23.14
2018-06-30T11:54:58.945Z,23.51
2018-06-30T11:57:27.248Z,23.58
2018-06-30T11:59:55.537Z,23.98
2018-06-30T12:02:23.934Z,23.88
2018-06-30T12:04:52.197Z,23.89
2018-06-30T12:07:20.539Z,23.86
2018-06-30T12:09:48.810Z,23.64
2018-06-30T12:12:17.121Z,23.86
2018-06-30T12:14:45.377Z,24.24
2018-06-30T12:17:13.686Z,24.41
2018-06-30T12:19:41.978Z,24.49
2018-06-30T12:22:10.256Z,24.36
2018-06-30T12:24:38.534Z,24.35
2018-06-30T12:27:07.091Z,24.42
2018-06-30T12:29:35.541Z,24.17
2018-06-30T12:32:03.907Z,23.83
2018-06-30T12:34:32.104Z,24.29
2018-06-30T12:37:00.398Z,24.49
2018-06-30T12:39:28.663Z,24.23
2018-06-30T12:41:56.955Z,24.22
2018-06-30T12:44:25.234Z,23.90
2018-06-30T12:46:53.529Z,24.19
2018-06-30T12:49:21.805Z,24.65
2018-06-30T12:51:50.113Z,24.67
2018-06-30T12:54:18.422Z,24.30
2018-06-30T12:56:46.641Z,24.63
2018-06-30T12:59:14.940Z,24.50
2018-06-30T13:01:43.260Z,24.37
2018-06-30T13:04:11.550Z,24.50
2018-06-30T13:06:39.869Z,24.55
2018-06-30T13:09:10.535Z,23.88
2018-06-30T13:11:38.993Z,23.43
2018-06-30T13:14:07.597Z,23.52
2018-06-30T13:16:36.670Z,24.03
2018-06-30T13:19:05.025Z,24.42
2018-06-30T13:21:33.377Z,24.65
2018-06-30T13:24:01.673Z,24.66
2018-06-30T13:26:30.038Z,24.48
2018-06-30T13:28:58.326Z,24.64
2018-06-30T13:31:26.583Z,24.60
2018-06-30T13:33:54.869Z,24.84
2018-06-30T13:36:23.157Z,25.05
2018-06-30T13:38:51.482Z,25.52
2018-06-30T13:41:19.793Z,24.55
2018-06-30T13:43:48.119Z,25.10
2018-06-30T13:46:16.466Z,25.46
2018-06-30T13:48:44.730Z,26.05
2018-06-30T13:51:12.989Z,27.02
2018-06-30T13:53:41.354Z,29.38
2018-06-30T13:56:09.673Z,30.69
2018-06-30T13:58:38.040Z,32.13
2018-06-30T14:01:06.401Z,34.22
2018-06-30T14:03:34.737Z,36.07
2018-06-30T14:06:03.173Z,36.91
2018-06-30T14:08:31.477Z,37.99
2018-06-30T14:10:59.780Z,39.91
2018-06-30T14:13:28.065Z,41.72
2018-06-30T14:15:56.386Z,41.86
2018-06-30T14:18:24.727Z,41.37
2018-06-30T14:20:53.018Z,42.38
2018-06-30T14:23:21.487Z,40.99
2018-06-30T14:25:49.853Z,41.49
2018-06-30T14:28:18.179Z,42.16
2018-06-30T14:30:46.569Z,38.79
2018-06-30T14:33:14.830Z,35.10
2018-06-30T14:35:43.221Z,33.38
2018-06-30T14:38:11.501Z,36.35
2018-06-30T14:40:40.797Z,37.25
2018-06-30T14:43:09.082Z,40.12
2018-06-30T14:45:37.409Z,42.25
2018-06-30T14:48:05.693Z,41.80
2018-06-30T14:50:34.009Z,42.90
2018-06-30T14:53:02.371Z,42.90
2018-06-30T14:55:30.582Z,41.78
2018-06-30T14:57:59.796Z,41.87
2018-06-30T15:00:28.109Z,42.18
2018-06-30T15:02:56.394Z,42.96
2018-06-30T15:05:24.685Z,41.76
2018-06-30T15:07:53.333Z,39.35
2018-06-30T15:10:21.596Z,40.50
2018-06-30T15:12:49.954Z,40.95
2018-06-30T15:15:18.222Z,42.24
2018-06-30T15:17:46.528Z,41.50
2018-06-30T15:20:15.905Z,39.86
2018-06-30T15:22:44.225Z,41.38
2018-06-30T15:25:12.558Z,41.55
2018-06-30T15:27:40.894Z,40.72
2018-06-30T15:30:09.196Z,39.35
2018-06-30T15:32:37.464Z,40.14
2018-06-30T15:35:05.773Z,40.40
2018-06-30T15:37:34.092Z,39.47
2018-06-30T15:40:02.380Z,39.23
2018-06-30T15:42:30.718Z,40.73
2018-06-30T15:44:59.989Z,41.22
2018-06-30T15:47:28.424Z,42.56
2018-06-30T15:49:56.756Z,41.50
2018-06-30T15:52:25.168Z,42.49
2018-06-30T15:54:53.496Z,43.92
2018-06-30T15:57:23.884Z,44.15
2018-06-30T15:59:52.337Z,42.98
2018-06-30T16:02:20.661Z,40.47
2018-06-30T16:04:49.025Z,43.07
2018-06-30T16:07:17.434Z,42.33
2018-06-30T16:09:45.909Z,41.02
2018-06-30T16:12:14.288Z,40.56
2018-06-30T16:14:44.652Z,41.12
2018-06-30T16:17:12.995Z,42.47
2018-06-30T16:19:41.453Z,40.93
2018-06-30T16:22:10.809Z,42.27
2018-06-30T16:24:39.269Z,42.86
2018-06-30T16:27:07.657Z,42.74
2018-06-30T16:29:35.974Z,39.83
2018-06-30T16:32:04.373Z,39.06
2018-06-30T16:34:32.663Z,39.31
2018-06-30T16:37:01.990Z,40.30
2018-06-30T16:39:30.261Z,38.67
2018-06-30T16:41:58.557Z,39.15
2018-06-30T16:44:26.837Z,40.10
2018-06-30T16:46:55.657Z,37.31
2018-06-30T16:49:24.057Z,39.60
2018-06-30T16:51:52.450Z,40.46
2018-06-30T16:54:20.770Z,39.76
2018-06-30T16:56:50.169Z,41.22
2018-06-30T16:59:18.448Z,37.91
2018-06-30T17:01:46.840Z,38.16
2018-06-30T17:04:15.146Z,39.94
2018-06-30T17:06:43.422Z,39.79
2018-06-30T17:09:13.436Z,37.02
2018-06-30T17:11:42.161Z,39.21
2018-06-30T17:14:14.292Z,39.22
2018-06-30T17:16:56.369Z,39.08
2018-06-30T17:19:25.010Z,39.06
2018-06-30T17:21:53.351Z,39.08
2018-06-30T17:24:22.684Z,38.41
2018-06-30T17:26:51.102Z,38.31
2018-06-30T17:29:19.485Z,38.43
2018-06-30T17:31:47.805Z,38.86
2018-06-30T17:34:16.173Z,37.83
2018-06-30T17:36:44.497Z,37.59
2018-06-30T17:39:12.840Z,36.97
2018-06-30T17:42:44.148Z,36.52
2018-06-30T17:45:12.525Z,36.55
2018-06-30T17:47:40.810Z,33.43
2018-06-30T17:50:09.165Z,31.16
2018-06-30T17:52:38.547Z,28.63
2018-06-30T17:55:07.133Z,26.89
2018-06-30T17:57:35.385Z,26.11
2018-06-30T18:00:03.777Z,25.49
2018-06-30T18:02:32.108Z,24.42
2018-06-30T18:05:00.421Z,24.04
2018-06-30T18:07:28.692Z,23.79
2018-06-30T18:09:56.983Z,23.47
2018-06-30T18:12:25.259Z,23.29
2018-06-30T18:14:53.539Z,23.12
2018-06-30T18:17:21.821Z,23.02
2018-06-30T18:19:50.389Z,22.94
2018-06-30T18:22:18.627Z,22.73
2018-06-30T18:24:46.921Z,22.64
2018-06-30T18:27:16.296Z,22.59
2018-06-30T18:29:44.577Z,22.50
2018-06-30T18:32:12.885Z,22.36
2018-06-30T18:34:41.157Z,22.55
2018-06-30T18:37:09.465Z,22.26
2018-06-30T18:39:37.720Z,22.23
2018-06-30T18:42:06.031Z,22.29
2018-06-30T18:44:34.343Z,22.22
2018-06-30T18:47:02.629Z,22.06
2018-06-30T18:49:30.885Z,21.87
2018-06-30T18:51:59.216Z,21.82
2018-06-30T18:54:27.480Z,21.64
2018-06-30T18:56:55.810Z,21.65
2018-06-30T18:59:24.097Z,21.75
2018-06-30T19:01:52.433Z,21.81
2018-06-30T19:04:20.733Z,21.70
2018-06-30T19:06:49.029Z,21.46
2018-06-30T19:09:17.291Z,21.51
2018-06-30T19:11:45.609Z,21.50
2018-06-30T19:14:13.866Z,21.48
2018-06-30T19:16:42.165Z,21.37
2018-06-30T19:19:11.441Z,21.37
2018-06-30T19:21:39.733Z,21.36
2018-06-30T19:24:08.009Z,21.29
2018-06-30T19:26:36.276Z,21.30
2018-06-30T19:29:04.582Z,21.37
2018-06-30T19:31:32.833Z,21.39
2018-06-30T19:34:01.125Z,21.38
2018-06-30T19:36:29.514Z,21.12
2018-06-30T19:38:57.784Z,21.10
2018-06-30T19:41:26.048Z,21.02
2018-06-30T19:43:54.341Z,20.88
2018-06-30T19:46:22.590Z,20.85
2018-06-30T19:48:50.874Z,20.94
2018-06-30T19:51:19.125Z,20.93
2018-06-30T19:53:47.397Z,20.89
2018-06-30T19:56:15.649Z,20.92
2018-06-30T19:58:43.921Z,20.79
2018-06-30T20:01:12.255Z,20.57
2018-06-30T20:03:40.672Z,20.53
2018-06-30T20:06:08.956Z,20.56
2018-06-30T20:08:37.572Z,20.47
2018-06-30T20:11:05.845Z,20.43
2018-06-30T20:13:34.213Z,20.43
2018-06-30T20:16:02.649Z,20.39
2018-06-30T20:18:30.908Z,20.37
2018-06-30T20:20:59.449Z,20.28
2018-06-30T20:23:27.729Z,20.12
2018-06-30T20:25:56.008Z,20.11
2018-06-30T20:28:24.253Z,20.00
2018-06-30T20:30:52.533Z,19.96
2018-06-30T20:33:21.373Z,19.88
2018-06-30T20:35:49.657Z,19.89
2018-06-30T20:38:17.929Z,19.71
2018-06-30T20:40:46.237Z,19.66
2018-06-30T20:43:14.496Z,19.59
2018-06-30T20:45:44.014Z,19.59
2018-06-30T20:48:12.281Z,19.42
2018-06-30T20:50:40.683Z,19.46
2018-06-30T20:53:08.970Z,19.36
2018-06-30T20:55:37.324Z,19.27
2018-06-30T20:58:06.181Z,19.12
2018-06-30T21:00:34.498Z,19.05
2018-06-30T21:03:02.846Z,19.03
2018-06-30T21:05:31.321Z,18.98
2018-06-30T21:07:59.641Z,18.92
2018-06-30T21:10:28.057Z,18.91
2018-06-30T21:12:56.328Z,18.83
2018-06-30T21:15:24.573Z,18.83
2018-06-30T21:17:52.910Z,18.76
2018-06-30T21:20:21.185Z,18.77
2018-06-30T21:22:49.484Z,18.68
2018-06-30T21:25:17.789Z,18.67
2018-06-30T21:27:46.078Z,18.69
2018-06-30T21:30:14.592Z,18.77
2018-06-30T21:32:42.989Z,18.65
2018-06-30T21:35:11.271Z,18.61
2018-06-30T21:37:39.855Z,18.57
2018-06-30T21:40:08.141Z,18.52
2018-06-30T21:42:36.495Z,18.33
2018-06-30T21:45:05.077Z,18.33
2018-06-30T21:47:33.385Z,18.22
2018-06-30T21:50:01.683Z,18.16
2018-06-30T21:52:29.993Z,18.05
2018-06-30T21:54:58.257Z,18.18
2018-06-30T21:57:26.608Z,18.17
2018-06-30T21:59:54.925Z,18.08
2018-06-30T22:02:23.237Z,18.07
2018-06-30T22:04:51.542Z,18.01
2018-06-30T22:07:19.810Z,18.00
2018-06-30T22:09:48.129Z,17.90
2018-06-30T22:12:16.609Z,17.88
2018-06-30T22:14:44.909Z,17.90
2018-06-30T22:17:13.233Z,17.85
2018-06-30T22:19:41.541Z,17.74
2018-06-30T22:22:09.809Z,17.51
2018-06-30T22:24:38.189Z,17.53
2018-06-30T22:27:06.481Z,17.53
2018-06-30T22:29:34.852Z,17.55
2018-06-30T22:32:03.236Z,17.58
2018-06-30T22:34:31.505Z,17.51
2018-06-30T22:37:00.889Z,17.38
2018-06-30T22:40:36.373Z,17.34
2018-06-30T22:43:05.100Z,17.39
2018-06-30T22:45:33.392Z,17.37
2018-06-30T22:48:01.658Z,17.33
2018-06-30T22:50:29.985Z,17.32
2018-06-30T22:52:58.304Z,17.33
2018-06-30T22:55:26.598Z,17.30
2018-06-30T22:57:54.912Z,17.13
2018-06-30T23:00:23.208Z,17.01
2018-06-30T23:02:51.550Z,17.00
2018-06-30T23:05:19.835Z,16.96
2018-06-30T23:07:48.160Z,16.97
2018-06-30T23:10:16.581Z,17.02
2018-06-30T23:12:45.437Z,16.92
2018-06-30T23:15:13.739Z,16.71
2018-06-30T23:17:42.188Z,16.92
2018-06-30T23:20:10.413Z,16.93
2018-06-30T23:22:52.773Z,16.88
2018-06-30T23:25:21.025Z,16.99
2018-06-30T23:27:49.314Z,16.96
2018-06-30T23:30:17.566Z,17.00
2018-06-30T23:32:45.856Z,16.91
2018-06-30T23:35:14.158Z,16.66
2018-06-30T23:37:42.464Z,16.63
2018-06-30T23:40:10.841Z,16.60
2018-06-30T23:42:39.128Z,16.62
2018-06-30T23:45:07.417Z,16.62
2018-06-30T23:47:35.746Z,16.52
2018-06-30T23:50:04.117Z,16.44
2018-06-30T23:52:32.382Z,16.52
2018-06-30T23:55:00.673Z,16.50
2018-06-30T23:57:28.949Z,16.49
2018-06-30T23:59:57.229Z,16.55
